createdAt,value
2017-05-09T00:00:31.434Z,46.79
2017-05-09T00:01:31.456Z,46.98
2017-05-09T00:02:31.482Z,46.98
2017-05-09T00:03:31.506Z,46.98
2017-05-09T00:04:31.537Z,47.66
2017-05-09T00:05:31.579Z,46.98
2017-05-09T00:06:31.672Z,46.98
2017-05-09T00:07:31.602Z,47.27
2017-05-09T00:08:31.632Z,47.37
2017-05-09T00:09:31.992Z,47.66
2017-05-09T00:10:31.675Z,47.34
2017-05-09T00:11:32.006Z,47.66
2017-05-09T00:12:31.726Z,46.79
2017-05-09T00:13:31.787Z,47.44
2017-05-09T00:14:31.828Z,47.37
2017-05-09T00:15:31.800Z,47.46
2017-05-09T00:16:31.819Z,47.37
2017-05-09T00:17:31.846Z,47.56
2017-05-09T00:18:32.171Z,47.56
2017-05-09T00:19:31.898Z,47.08
2017-05-09T00:20:32.225Z,46.79
2017-05-09T00:21:32.256Z,46.98
2017-05-09T00:22:32.272Z,46.98
2017-05-09T00:23:31.995Z,46.79
2017-05-09T00:24:32.019Z,46.79
2017-05-09T00:25:32.047Z,47.37
2017-05-09T00:26:32.071Z,47.75
2017-05-09T00:27:32.397Z,47.44
2017-05-09T00:28:32.124Z,47.73
2017-05-09T00:29:32.197Z,47.66
2017-05-09T00:30:32.468Z,47.27
2017-05-09T00:31:32.497Z,47.25
2017-05-09T00:32:32.221Z,46.89
2017-05-09T00:33:32.241Z,46.98
2017-05-09T00:34:32.267Z,46.98
2017-05-09T00:35:32.295Z,47.44
2017-05-09T00:36:32.317Z,47.53
2017-05-09T00:37:32.653Z,47.25
2017-05-09T00:38:32.366Z,47.63
2017-05-09T00:39:32.692Z,47.34
2017-05-09T00:40:32.716Z,47.27
2017-05-09T00:41:32.441Z,47.66
2017-05-09T00:42:32.764Z,47.25
2017-05-09T00:43:32.489Z,47.66
2017-05-09T00:44:32.513Z,47.34
2017-05-09T00:45:32.586Z,47.63
2017-05-09T00:46:32.562Z,47.63
2017-05-09T00:47:32.662Z,47.53
2017-05-09T00:48:32.913Z,46.89
2017-05-09T00:49:32.937Z,47.08
2017-05-09T00:50:32.665Z,47.08
2017-05-09T00:51:32.686Z,46.89
2017-05-09T00:52:33.025Z,47.17
2017-05-09T00:53:33.040Z,47.17
2017-05-09T00:54:33.061Z,47.17
2017-05-09T00:55:32.789Z,46.86
2017-05-09T00:56:32.809Z,46.96
2017-05-09T00:57:33.137Z,46.77
2017-05-09T00:58:32.858Z,47.34
2017-05-09T00:59:33.182Z,47.44
2017-05-09T01:00:32.911Z,47.34
2017-05-09T01:01:33.232Z,47.34
2017-05-09T01:02:34.010Z,47.44
2017-05-09T01:03:33.282Z,47.53
2017-05-09T01:04:33.006Z,47.73
2017-05-09T01:05:33.330Z,47.53
2017-05-09T01:06:33.054Z,47.53
2017-05-09T01:07:33.079Z,47.34
2017-05-09T01:08:33.107Z,47.34
2017-05-09T01:09:33.129Z,47.44
2017-05-09T01:10:33.182Z,47.34
2017-05-09T01:11:33.502Z,47.53
2017-05-09T01:12:33.501Z,47.44
2017-05-09T01:13:33.225Z,47.34
2017-05-09T01:14:33.253Z,47.44
2017-05-09T01:15:33.285Z,47.34
2017-05-09T01:16:33.304Z,47.44
2017-05-09T01:17:33.629Z,47.34
2017-05-09T01:18:33.348Z,47.63
2017-05-09T01:19:33.723Z,47.44
2017-05-09T01:20:33.706Z,47.06
2017-05-09T01:21:33.461Z,46.86
2017-05-09T01:22:33.447Z,47.25
2017-05-09T01:23:33.468Z,47.73
2017-05-09T01:24:33.775Z,47.34
2017-05-09T01:25:33.520Z,47.53
2017-05-09T01:26:33.542Z,47.53
2017-05-09T01:27:33.568Z,47.25
2017-05-09T01:28:33.894Z,47.53
2017-05-09T01:29:33.616Z,47.34
2017-05-09T01:30:33.949Z,46.96
2017-05-09T01:31:33.667Z,46.96
2017-05-09T01:32:33.994Z,46.86
2017-05-09T01:33:33.714Z,47.06
2017-05-09T01:34:33.789Z,47.15
2017-05-09T01:35:33.766Z,47.25
2017-05-09T01:36:34.089Z,47.15
2017-05-09T01:37:34.119Z,46.96
2017-05-09T01:38:33.837Z,47.15
2017-05-09T01:39:33.869Z,47.15
2017-05-09T01:40:33.892Z,47.15
2017-05-09T01:41:33.916Z,46.77
2017-05-09T01:42:33.934Z,47.06
2017-05-09T01:43:33.959Z,46.86
2017-05-09T01:44:34.283Z,47.15
2017-05-09T01:45:34.309Z,47.25
2017-05-09T01:46:34.034Z,46.77
2017-05-09T01:47:34.061Z,47.06
2017-05-09T01:48:34.389Z,46.86
2017-05-09T01:49:34.104Z,47.06
2017-05-09T01:50:34.182Z,46.96
2017-05-09T01:51:34.154Z,47.06
2017-05-09T01:52:34.181Z,46.96
2017-05-09T01:53:34.510Z,47.15
2017-05-09T01:54:34.526Z,47.25
2017-05-09T01:55:34.254Z,47.15
2017-05-09T01:56:34.281Z,47.25
2017-05-09T01:57:34.314Z,46.96
2017-05-09T01:58:34.627Z,46.96
2017-05-09T01:59:34.657Z,47.06
2017-05-09T02:00:34.381Z,46.77
2017-05-09T02:01:34.399Z,47.06
2017-05-09T02:02:34.789Z,46.96
2017-05-09T02:03:34.451Z,46.96
2017-05-09T02:04:34.476Z,46.96
2017-05-09T02:05:34.502Z,47.15
2017-05-09T02:06:34.573Z,47.25
2017-05-09T02:07:34.551Z,47.15
2017-05-09T02:08:34.873Z,47.06
2017-05-09T02:09:34.897Z,46.86
2017-05-09T02:10:34.632Z,46.77
2017-05-09T02:11:34.651Z,47.15
2017-05-09T02:12:34.970Z,46.86
2017-05-09T02:13:34.998Z,46.86
2017-05-09T02:14:35.017Z,46.77
2017-05-09T02:15:34.996Z,46.77
2017-05-09T02:16:34.768Z,46.86
2017-05-09T02:17:34.793Z,47.06
2017-05-09T02:18:34.847Z,46.77
2017-05-09T02:19:34.870Z,46.77
2017-05-09T02:20:34.867Z,46.96
2017-05-09T02:21:35.191Z,47.15
2017-05-09T02:22:35.261Z,46.86
2017-05-09T02:23:34.940Z,46.96
2017-05-09T02:24:34.959Z,46.77
2017-05-09T02:25:35.288Z,46.96
2017-05-09T02:26:35.010Z,46.96
2017-05-09T02:27:35.071Z,47.06
2017-05-09T02:28:35.060Z,46.96
2017-05-09T02:29:35.390Z,46.77
2017-05-09T02:30:35.409Z,46.86
2017-05-09T02:31:35.431Z,46.96
2017-05-09T02:32:35.457Z,47.15
2017-05-09T02:33:35.181Z,47.25
2017-05-09T02:34:35.511Z,46.86
2017-05-09T02:35:35.226Z,46.77
2017-05-09T02:36:35.252Z,46.86
2017-05-09T02:37:35.287Z,46.67
2017-05-09T02:38:35.655Z,46.77
2017-05-09T02:39:35.327Z,46.86
2017-05-09T02:40:35.376Z,47.15
2017-05-09T02:41:35.678Z,46.86
2017-05-09T02:42:35.398Z,46.77
2017-05-09T02:43:35.734Z,46.67
2017-05-09T02:44:35.453Z,46.96
2017-05-09T02:45:35.776Z,46.86
2017-05-09T02:46:35.498Z,47.25
2017-05-09T02:47:35.824Z,47.15
2017-05-09T02:48:35.547Z,46.96
2017-05-09T02:49:35.869Z,46.77
2017-05-09T02:50:35.595Z,46.39
2017-05-09T02:51:35.620Z,46.58
2017-05-09T02:52:35.647Z,46.58
2017-05-09T02:53:35.966Z,46.48
2017-05-09T02:54:35.689Z,46.86
2017-05-09T02:55:35.716Z,47.15
2017-05-09T02:56:35.744Z,46.77
2017-05-09T02:57:35.966Z,46.58
2017-05-09T02:58:35.817Z,46.48
2017-05-09T02:59:35.818Z,46.67
2017-05-09T03:00:35.848Z,46.67
2017-05-09T03:01:35.861Z,46.77
2017-05-09T03:02:35.884Z,46.77
2017-05-09T03:03:35.951Z,46.48
2017-05-09T03:04:35.935Z,46.48
2017-05-09T03:05:35.972Z,46.36
2017-05-09T03:06:35.981Z,46.77
2017-05-09T03:07:36.006Z,46.58
2017-05-09T03:08:36.339Z,46.39
2017-05-09T03:09:36.059Z,46.84
2017-05-09T03:10:36.089Z,47.03
2017-05-09T03:11:36.109Z,46.84
2017-05-09T03:12:36.128Z,46.77
2017-05-09T03:13:36.465Z,46.48
2017-05-09T03:14:36.250Z,46.55
2017-05-09T03:15:36.202Z,46.58
2017-05-09T03:16:36.559Z,47.03
2017-05-09T03:17:36.252Z,46.94
2017-05-09T03:18:36.574Z,46.84
2017-05-09T03:19:36.302Z,46.94
2017-05-09T03:20:36.324Z,47.13
2017-05-09T03:21:36.347Z,47.22
2017-05-09T03:22:36.372Z,47.03
2017-05-09T03:23:36.400Z,47.13
2017-05-09T03:24:36.419Z,47.22
2017-05-09T03:25:36.445Z,46.75
2017-05-09T03:26:36.471Z,46.94
2017-05-09T03:27:36.799Z,46.75
2017-05-09T03:28:36.516Z,46.84
2017-05-09T03:29:36.549Z,47.13
2017-05-09T03:30:36.618Z,46.84
2017-05-09T03:31:36.896Z,46.46
2017-05-09T03:32:36.917Z,46.29
2017-05-09T03:33:36.643Z,46.55
2017-05-09T03:34:36.962Z,46.84
2017-05-09T03:35:36.985Z,46.26
2017-05-09T03:36:37.020Z,46.46
2017-05-09T03:37:37.042Z,46.75
2017-05-09T03:38:36.758Z,46.65
2017-05-09T03:39:37.089Z,46.46
2017-05-09T03:40:36.811Z,46.36
2017-05-09T03:41:36.950Z,46.17
2017-05-09T03:42:36.865Z,46.46
2017-05-09T03:43:36.880Z,46.46
2017-05-09T03:44:36.905Z,46.75
2017-05-09T03:45:36.927Z,46.65
2017-05-09T03:46:36.952Z,46.55
2017-05-09T03:47:36.987Z,46.36
2017-05-09T03:48:37.358Z,47.13
2017-05-09T03:49:37.329Z,47.22
2017-05-09T03:50:37.048Z,46.75
2017-05-09T03:51:37.081Z,46.75
2017-05-09T03:52:37.406Z,46.75
2017-05-09T03:53:37.421Z,46.75
2017-05-09T03:54:37.149Z,47.03
2017-05-09T03:55:37.176Z,47.22
2017-05-09T03:56:37.497Z,46.55
2017-05-09T03:57:37.520Z,47.22
2017-05-09T03:58:37.243Z,46.94
2017-05-09T03:59:37.566Z,46.46
2017-05-09T04:00:37.592Z,46.65
2017-05-09T04:01:37.319Z,46.46
2017-05-09T04:02:37.640Z,46.55
2017-05-09T04:03:37.718Z,47.22
2017-05-09T04:04:37.392Z,47.13
2017-05-09T04:05:37.414Z,47.13
2017-05-09T04:06:37.738Z,47.13
2017-05-09T04:07:37.763Z,47.13
2017-05-09T04:08:37.789Z,46.94
2017-05-09T04:09:37.520Z,46.65
2017-05-09T04:10:37.836Z,46.94
2017-05-09T04:11:37.556Z,47.13
2017-05-09T04:12:37.584Z,47.13
2017-05-09T04:13:37.607Z,46.94
2017-05-09T04:14:37.630Z,46.36
2017-05-09T04:15:37.671Z,46.36
2017-05-09T04:16:37.699Z,46.55
2017-05-09T04:17:37.703Z,46.75
2017-05-09T04:18:37.727Z,46.55
2017-05-09T04:19:38.049Z,46.46
2017-05-09T04:20:37.774Z,46.46
2017-05-09T04:21:38.247Z,46.46
2017-05-09T04:22:37.823Z,46.46
2017-05-09T04:23:37.846Z,46.75
2017-05-09T04:24:38.171Z,46.65
2017-05-09T04:25:38.224Z,46.36
2017-05-09T04:26:37.917Z,46.55
2017-05-09T04:27:37.951Z,46.46
2017-05-09T04:28:37.964Z,46.46
2017-05-09T04:29:38.293Z,46.46
2017-05-09T04:30:38.015Z,46.26
2017-05-09T04:31:38.038Z,46.19
2017-05-09T04:32:38.058Z,46.36
2017-05-09T04:33:38.402Z,46.36
2017-05-09T04:34:38.115Z,46.36
2017-05-09T04:35:38.134Z,46.36
2017-05-09T04:36:38.158Z,46.46
2017-05-09T04:37:38.487Z,46.36
2017-05-09T04:38:38.209Z,46.17
2017-05-09T04:39:38.230Z,46.46
2017-05-09T04:40:38.305Z,46.46
2017-05-09T04:41:38.283Z,46.55
2017-05-09T04:42:38.307Z,46.94
2017-05-09T04:43:38.629Z,46.55
2017-05-09T04:44:38.652Z,46.26
2017-05-09T04:45:38.380Z,46.55
2017-05-09T04:46:38.405Z,46.36
2017-05-09T04:47:38.425Z,46.36
2017-05-09T04:48:38.451Z,46.46
2017-05-09T04:49:38.477Z,45.79
2017-05-09T04:50:38.502Z,45.89
2017-05-09T04:51:38.824Z,46.36
2017-05-09T04:52:38.563Z,46.36
2017-05-09T04:53:38.572Z,46.46
2017-05-09T04:54:38.612Z,46.08
2017-05-09T04:55:38.676Z,45.89
2017-05-09T04:56:38.648Z,45.98
2017-05-09T04:57:38.964Z,46.17
2017-05-09T04:58:38.699Z,46.26
2017-05-09T04:59:38.715Z,46.08
2017-05-09T05:00:39.051Z,46.26
2017-05-09T05:01:38.797Z,45.89
2017-05-09T05:02:38.795Z,46.36
2017-05-09T05:03:38.814Z,45.89
2017-05-09T05:04:38.834Z,46.36
2017-05-09T05:05:38.867Z,46.08
2017-05-09T05:06:38.887Z,46.17
2017-05-09T05:07:39.225Z,45.79
2017-05-09T05:08:38.938Z,46.17
2017-05-09T05:09:39.287Z,45.98
2017-05-09T05:10:39.061Z,46.1
2017-05-09T05:11:39.020Z,46.17
2017-05-09T05:12:39.032Z,45.98
2017-05-09T05:13:39.057Z,45.69
2017-05-09T05:14:39.083Z,45.79
2017-05-09T05:15:39.125Z,45.43
2017-05-09T05:16:39.136Z,45.79
2017-05-09T05:17:39.156Z,45.62
2017-05-09T05:18:39.193Z,45.69
2017-05-09T05:19:39.214Z,45.72
2017-05-09T05:20:39.231Z,46.26
2017-05-09T05:21:39.262Z,45.4
2017-05-09T05:22:39.285Z,45.9
2017-05-09T05:23:39.306Z,45.69
2017-05-09T05:24:39.329Z,45.43
2017-05-09T05:25:39.351Z,45.59
2017-05-09T05:26:39.427Z,45.69
2017-05-09T05:27:39.400Z,45.14
2017-05-09T05:28:39.474Z,45.72
2017-05-09T05:29:39.451Z,45.4
2017-05-09T05:30:39.474Z,45.04
2017-05-09T05:31:39.502Z,45.12
2017-05-09T05:32:39.522Z,45.4
2017-05-09T05:33:39.867Z,45.4
2017-05-09T05:34:39.587Z,45.72
2017-05-09T05:35:39.596Z,45.52
2017-05-09T05:36:39.628Z,45.4
2017-05-09T05:37:39.644Z,45.21
2017-05-09T05:38:39.680Z,45.33
2017-05-09T05:39:39.692Z,45.14
2017-05-09T05:40:39.730Z,44.85
2017-05-09T05:41:40.027Z,45.14
2017-05-09T05:42:40.056Z,45.14
2017-05-09T05:43:39.793Z,45.23
2017-05-09T05:44:39.818Z,44.85
2017-05-09T05:45:39.849Z,45.04
2017-05-09T05:46:39.866Z,44.95
2017-05-09T05:47:39.893Z,45.04
2017-05-09T05:48:39.911Z,44.95
2017-05-09T05:49:39.943Z,44.85
2017-05-09T05:50:39.968Z,45.23
2017-05-09T05:51:39.996Z,44.95
2017-05-09T05:52:40.014Z,45.23
2017-05-09T05:53:40.337Z,45.04
2017-05-09T05:54:40.065Z,45.04
2017-05-09T05:55:40.091Z,45.23
2017-05-09T05:56:40.112Z,45.04
2017-05-09T05:57:40.136Z,44.85
2017-05-09T05:58:40.216Z,45.23
2017-05-09T05:59:40.209Z,45.04
2017-05-09T06:00:40.212Z,44.85
2017-05-09T06:01:40.230Z,44.85
2017-05-09T06:02:40.257Z,44.95
2017-05-09T06:03:40.291Z,44.85
2017-05-09T06:04:40.313Z,44.76
2017-05-09T06:05:40.631Z,44.85
2017-05-09T06:06:40.353Z,45.23
2017-05-09T06:07:40.383Z,44.93
2017-05-09T06:08:40.415Z,45.04
2017-05-09T06:09:40.429Z,44.93
2017-05-09T06:10:40.457Z,45.14
2017-05-09T06:11:40.473Z,45.14
2017-05-09T06:12:40.502Z,45.23
2017-05-09T06:13:40.531Z,45.23
2017-05-09T06:14:40.850Z,45.33
2017-05-09T06:15:40.578Z,45.23
2017-05-09T06:16:40.652Z,45.33
2017-05-09T06:17:40.622Z,45.5
2017-05-09T06:18:40.643Z,45.5
2017-05-09T06:19:40.976Z,45.12
2017-05-09T06:20:40.717Z,45.4
2017-05-09T06:21:40.726Z,45.21
2017-05-09T06:22:40.755Z,45.69
2017-05-09T06:23:40.776Z,45.4
2017-05-09T06:24:41.093Z,45.14
2017-05-09T06:25:40.819Z,45.04
2017-05-09T06:26:40.844Z,45.04
2017-05-09T06:27:40.866Z,45.33
2017-05-09T06:28:40.894Z,45.02
2017-05-09T06:29:40.919Z,45.21
2017-05-09T06:30:40.942Z,45.31
2017-05-09T06:31:40.964Z,45.33
2017-05-09T06:32:40.989Z,45.02
2017-05-09T06:33:41.018Z,45.4
2017-05-09T06:34:41.092Z,45.4
2017-05-09T06:35:41.065Z,45.31
2017-05-09T06:36:41.387Z,45.31
2017-05-09T06:37:41.112Z,45.5
2017-05-09T06:38:41.436Z,45.4
2017-05-09T06:39:41.160Z,46.26
2017-05-09T06:40:41.186Z,45.79
2017-05-09T06:41:41.218Z,45.59
2017-05-09T06:42:41.237Z,45.59
2017-05-09T06:43:41.256Z,45.69
2017-05-09T06:44:41.286Z,45.31
2017-05-09T06:45:41.308Z,45.31
2017-05-09T06:46:41.333Z,45.12
2017-05-09T06:47:41.363Z,45.72
2017-05-09T06:48:41.385Z,45.31
2017-05-09T06:49:41.403Z,45.4
2017-05-09T06:50:41.730Z,45.4
2017-05-09T06:51:41.457Z,45.4
2017-05-09T06:52:41.479Z,45.59
2017-05-09T06:53:41.807Z,45.79
2017-05-09T06:54:41.534Z,45.4
2017-05-09T06:55:41.553Z,45.72
2017-05-09T06:56:41.876Z,45.69
2017-05-09T06:57:41.602Z,45.4
2017-05-09T06:58:41.624Z,45.69
2017-05-09T06:59:41.661Z,45.31
2017-05-09T07:00:41.696Z,45.69
2017-05-09T07:01:41.700Z,45.31
2017-05-09T07:02:41.720Z,45.69
2017-05-09T07:03:41.748Z,45.69
2017-05-09T07:04:41.774Z,45.79
2017-05-09T07:05:41.798Z,45.81
2017-05-09T07:06:41.827Z,45.31
2017-05-09T07:07:41.844Z,45.69
2017-05-09T07:08:41.866Z,45.59
2017-05-09T07:09:41.891Z,45.79
2017-05-09T07:10:42.219Z,45.59
2017-05-09T07:11:41.945Z,46.08
2017-05-09T07:12:41.965Z,45.5
2017-05-09T07:13:41.993Z,45.02
2017-05-09T07:14:42.017Z,45.33
2017-05-09T07:15:42.352Z,45.52
2017-05-09T07:16:42.069Z,45.04
2017-05-09T07:17:42.097Z,45.69
2017-05-09T07:18:42.117Z,45.4
2017-05-09T07:19:42.136Z,45.31
2017-05-09T07:20:42.161Z,45.52
2017-05-09T07:21:42.488Z,45.43
2017-05-09T07:22:42.212Z,45.98
2017-05-09T07:23:42.231Z,46.17
2017-05-09T07:24:42.258Z,45.69
2017-05-09T07:25:42.286Z,45.5
2017-05-09T07:26:42.309Z,45.33
2017-05-09T07:27:42.383Z,45.43
2017-05-09T07:28:42.361Z,45.69
2017-05-09T07:29:42.380Z,45.89
2017-05-09T07:30:42.704Z,45.43
2017-05-09T07:31:42.430Z,45.43
2017-05-09T07:32:42.463Z,45.79
2017-05-09T07:33:42.478Z,45.72
2017-05-09T07:34:42.503Z,45.72
2017-05-09T07:35:42.840Z,45.43
2017-05-09T07:36:42.554Z,45.33
2017-05-09T07:37:42.577Z,45.43
2017-05-09T07:38:42.608Z,45.23
2017-05-09T07:39:42.640Z,45.52
2017-05-09T07:40:42.655Z,45.14
2017-05-09T07:41:42.674Z,45.23
2017-05-09T07:42:42.700Z,45.52
2017-05-09T07:43:42.778Z,45.23
2017-05-09T07:44:43.048Z,45.33
2017-05-09T07:45:42.774Z,45.23
2017-05-09T07:46:42.797Z,45.14
2017-05-09T07:47:43.121Z,45.72
2017-05-09T07:48:42.847Z,45.52
2017-05-09T07:49:43.185Z,45.52
2017-05-09T07:50:42.901Z,45.62
2017-05-09T07:51:42.920Z,45.52
2017-05-09T07:52:42.949Z,45.52
2017-05-09T07:53:42.967Z,45.23
2017-05-09T07:54:42.994Z,45.23
2017-05-09T07:55:43.018Z,45.04
2017-05-09T07:56:43.346Z,44.95
2017-05-09T07:57:43.383Z,45.04
2017-05-09T07:58:43.091Z,45.33
2017-05-09T07:59:43.114Z,44.85
2017-05-09T08:00:43.143Z,44.85
2017-05-09T08:01:43.163Z,45.23
2017-05-09T08:02:43.190Z,44.76
2017-05-09T08:03:43.212Z,44.47
2017-05-09T08:04:43.535Z,44.78
2017-05-09T08:05:43.263Z,44.95
2017-05-09T08:06:43.594Z,45.23
2017-05-09T08:07:43.618Z,44.47
2017-05-09T08:08:43.336Z,44.76
2017-05-09T08:09:43.357Z,45.04
2017-05-09T08:10:43.685Z,44.76
2017-05-09T08:11:43.408Z,44.66
2017-05-09T08:12:43.434Z,44.49
2017-05-09T08:13:43.458Z,44.4
2017-05-09T08:14:43.482Z,44.4
2017-05-09T08:15:43.502Z,44.3
2017-05-09T08:16:43.532Z,44.2
2017-05-09T08:17:43.564Z,44.56
2017-05-09T08:18:43.583Z,44.4
2017-05-09T08:19:43.909Z,44.3
2017-05-09T08:20:43.628Z,44.3
2017-05-09T08:21:43.654Z,44.3
2017-05-09T08:22:43.975Z,44.2
2017-05-09T08:23:43.708Z,44.3
2017-05-09T08:24:44.036Z,44.01
2017-05-09T08:25:43.774Z,44.11
2017-05-09T08:26:43.774Z,44.4
2017-05-09T08:27:44.098Z,44.3
2017-05-09T08:28:43.820Z,44.2
2017-05-09T08:29:43.847Z,44.3
2017-05-09T08:30:43.877Z,44.3
2017-05-09T08:31:44.199Z,44.3
2017-05-09T08:32:43.924Z,44.47
2017-05-09T08:33:44.251Z,44.76
2017-05-09T08:34:43.975Z,44.3
2017-05-09T08:35:43.998Z,44.3
2017-05-09T08:36:44.019Z,44.3
2017-05-09T08:37:44.042Z,44.4
2017-05-09T08:38:44.065Z,44.01
2017-05-09T08:39:44.094Z,44.11
2017-05-09T08:40:44.123Z,44.01
2017-05-09T08:41:44.142Z,43.73
2017-05-09T08:42:44.165Z,43.82
2017-05-09T08:43:44.189Z,43.73
2017-05-09T08:44:44.224Z,43.73
2017-05-09T08:45:44.240Z,43.15
2017-05-09T08:46:44.269Z,43.65
2017-05-09T08:47:44.286Z,43.34
2017-05-09T08:48:44.625Z,43.36
2017-05-09T08:49:44.666Z,43.82
2017-05-09T08:50:44.365Z,44.03
2017-05-09T08:51:44.386Z,43.65
2017-05-09T08:52:44.417Z,43.55
2017-05-09T08:53:44.437Z,43.27
2017-05-09T08:54:44.460Z,42.98
2017-05-09T08:55:44.497Z,43.36
2017-05-09T08:56:44.511Z,43.46
2017-05-09T08:57:44.838Z,43.36
2017-05-09T08:58:44.564Z,43.36
2017-05-09T08:59:44.592Z,43.36
2017-05-09T09:00:44.615Z,42.98
2017-05-09T09:01:44.635Z,42.88
2017-05-09T09:02:44.659Z,43.07
2017-05-09T09:03:44.690Z,43.07
2017-05-09T09:04:44.715Z,42.79
2017-05-09T09:05:44.747Z,42.6
2017-05-09T09:06:44.766Z,42.21
2017-05-09T09:07:44.788Z,42.69
2017-05-09T09:08:44.812Z,42.5
2017-05-09T09:09:44.888Z,42.3
2017-05-09T09:10:44.862Z,42.3
2017-05-09T09:11:44.884Z,42.3
2017-05-09T09:12:44.940Z,42.98
2017-05-09T09:13:44.938Z,42.52
2017-05-09T09:14:44.961Z,42.33
2017-05-09T09:15:44.985Z,41.94
2017-05-09T09:16:45.041Z,41.66
2017-05-09T09:17:45.044Z,41.66
2017-05-09T09:18:45.060Z,41.75
2017-05-09T09:19:45.090Z,41.37
2017-05-09T09:20:45.111Z,41.37
2017-05-09T09:21:45.134Z,42.13
2017-05-09T09:22:45.468Z,41.56
2017-05-09T09:23:45.493Z,41.56
2017-05-09T09:24:45.518Z,41.46
2017-05-09T09:25:45.595Z,41.85
2017-05-09T09:26:45.265Z,41.66
2017-05-09T09:27:45.289Z,41.85
2017-05-09T09:28:45.623Z,41.08
2017-05-09T09:29:45.344Z,41.94
2017-05-09T09:30:45.365Z,40.99
2017-05-09T09:31:45.712Z,41.66
2017-05-09T09:32:45.416Z,41.56
2017-05-09T09:33:45.440Z,41.56
2017-05-09T09:34:45.469Z,41.75
2017-05-09T09:35:45.494Z,41.66
2017-05-09T09:36:45.547Z,41.66
2017-05-09T09:37:45.545Z,40.89
2017-05-09T09:38:45.569Z,41.17
2017-05-09T09:39:45.594Z,41.37
2017-05-09T09:40:45.923Z,40.89
2017-05-09T09:41:46.048Z,40.99
2017-05-09T09:42:45.670Z,41.08
2017-05-09T09:43:45.698Z,41.27
2017-05-09T09:44:46.026Z,41.37
2017-05-09T09:45:45.752Z,41.39
2017-05-09T09:46:46.072Z,40.6
2017-05-09T09:47:46.099Z,40.7
2017-05-09T09:48:46.125Z,41.27
2017-05-09T09:49:45.849Z,40.89
2017-05-09T09:50:45.871Z,40.7
2017-05-09T09:51:45.899Z,41.17
2017-05-09T09:52:46.233Z,41.37
2017-05-09T09:53:45.947Z,41.08
2017-05-09T09:54:45.978Z,40.6
2017-05-09T09:55:46.306Z,41.08
2017-05-09T09:56:46.073Z,40.31
2017-05-09T09:57:46.051Z,40.79
2017-05-09T09:58:46.375Z,40.41
2017-05-09T09:59:46.112Z,40.79
2017-05-09T10:00:46.434Z,40.43
2017-05-09T10:01:46.156Z,40.6
2017-05-09T10:02:46.487Z,40.31
2017-05-09T10:03:46.504Z,39.85
2017-05-09T10:04:46.528Z,40.05
2017-05-09T10:05:46.257Z,40.05
2017-05-09T10:06:46.279Z,39.56
2017-05-09T10:07:46.318Z,40.05
2017-05-09T10:08:46.349Z,40.05
2017-05-09T10:09:46.357Z,39.76
2017-05-09T10:10:46.381Z,39.76
2017-05-09T10:11:46.457Z,39.18
2017-05-09T10:12:46.433Z,39.08
2017-05-09T10:13:46.458Z,39.58
2017-05-09T10:14:46.488Z,39.18
2017-05-09T10:15:46.509Z,39.29
2017-05-09T10:16:46.533Z,38.43
2017-05-09T10:17:46.566Z,38.72
2017-05-09T10:18:46.588Z,38.91
2017-05-09T10:19:46.918Z,38.53
2017-05-09T10:20:46.646Z,39.11
2017-05-09T10:21:46.668Z,38.53
2017-05-09T10:22:46.711Z,38.24
2017-05-09T10:23:46.713Z,38.53
2017-05-09T10:24:46.742Z,38.53
2017-05-09T10:25:46.765Z,38.43
2017-05-09T10:26:47.142Z,38.53
2017-05-09T10:27:46.819Z,38.53
2017-05-09T10:28:46.843Z,38.62
2017-05-09T10:29:46.871Z,38.62
2017-05-09T10:30:47.205Z,38.43
2017-05-09T10:31:47.222Z,38.43
2017-05-09T10:32:47.252Z,38.43
2017-05-09T10:33:46.972Z,38.34
2017-05-09T10:34:46.998Z,38.53
2017-05-09T10:35:47.023Z,38.24
2017-05-09T10:36:47.049Z,38.14
2017-05-09T10:37:47.112Z,38.53
2017-05-09T10:38:47.412Z,38.43
2017-05-09T10:39:47.439Z,38.14
2017-05-09T10:40:47.153Z,38.43
2017-05-09T10:41:47.529Z,38.34
2017-05-09T10:42:47.205Z,38.04
2017-05-09T10:43:47.233Z,38.14
2017-05-09T10:44:47.253Z,37.85
2017-05-09T10:45:47.284Z,38.04
2017-05-09T10:46:47.610Z,38.14
2017-05-09T10:47:47.437Z,37.76
2017-05-09T10:48:47.657Z,37.68
2017-05-09T10:49:47.383Z,37.49
2017-05-09T10:50:47.411Z,37.49
2017-05-09T10:51:47.742Z,37.3
2017-05-09T10:52:47.761Z,37.1
2017-05-09T10:53:47.490Z,37.39
2017-05-09T10:54:47.523Z,37.2
2017-05-09T10:55:47.545Z,37.2
2017-05-09T10:56:47.561Z,37.3
2017-05-09T10:57:47.601Z,37.01
2017-05-09T10:58:47.715Z,37.1
2017-05-09T10:59:47.640Z,36.72
2017-05-09T11:00:47.968Z,36.82
2017-05-09T11:01:47.694Z,36.82
2017-05-09T11:02:47.722Z,36.91
2017-05-09T11:03:47.750Z,36.62
2017-05-09T11:04:48.078Z,36.24
2017-05-09T11:05:47.804Z,37.01
2017-05-09T11:06:47.827Z,36.62
2017-05-09T11:07:48.149Z,36.43
2017-05-09T11:08:47.874Z,36.82
2017-05-09T11:09:48.198Z,36.82
2017-05-09T11:10:48.258Z,36.91
2017-05-09T11:11:48.252Z,36.82
2017-05-09T11:12:48.292Z,36.62
2017-05-09T11:13:48.309Z,36.72
2017-05-09T11:14:48.033Z,36.72
2017-05-09T11:15:48.361Z,36.82
2017-05-09T11:16:48.091Z,36.82
2017-05-09T11:17:48.157Z,36.91
2017-05-09T11:18:48.135Z,36.72
2017-05-09T11:19:48.462Z,36.91
2017-05-09T11:20:48.186Z,36.33
2017-05-09T11:21:48.211Z,36.15
2017-05-09T11:22:48.242Z,36.15
2017-05-09T11:23:48.266Z,34.99
2017-05-09T11:24:48.323Z,34.99
2017-05-09T11:25:48.362Z,35.38
2017-05-09T11:26:48.356Z,35.47
2017-05-09T11:27:48.389Z,34.12
2017-05-09T11:28:48.392Z,34.31
2017-05-09T11:29:48.420Z,33.26
2017-05-09T11:30:48.449Z,32.87
2017-05-09T11:31:48.473Z,33.93
2017-05-09T11:32:48.804Z,34.12
2017-05-09T11:33:48.525Z,34.41
2017-05-09T11:34:48.552Z,34.33
2017-05-09T11:35:48.877Z,34.31
2017-05-09T11:36:48.954Z,34.33
2017-05-09T11:37:48.632Z,34.31
2017-05-09T11:38:48.658Z,34.72
2017-05-09T11:39:48.982Z,34.61
2017-05-09T11:40:48.711Z,34.89
2017-05-09T11:41:48.732Z,34.8
2017-05-09T11:42:48.764Z,34.61
2017-05-09T11:43:48.827Z,34.61
2017-05-09T11:44:48.817Z,34.8
2017-05-09T11:45:48.840Z,34.61
2017-05-09T11:46:49.164Z,34.61
2017-05-09T11:47:48.890Z,34.7
2017-05-09T11:48:48.917Z,34.61
2017-05-09T11:49:48.945Z,34.7
2017-05-09T11:50:48.969Z,34.61
2017-05-09T11:51:48.994Z,34.61
2017-05-09T11:52:49.020Z,34.7
2017-05-09T11:53:49.406Z,34.7
2017-05-09T11:54:49.376Z,34.7
2017-05-09T11:55:49.402Z,34.7
2017-05-09T11:56:49.134Z,34.51
2017-05-09T11:57:49.453Z,34.51
2017-05-09T11:58:49.479Z,34.7
2017-05-09T11:59:49.507Z,34.31
2017-05-09T12:00:49.531Z,34.51
2017-05-09T12:01:49.572Z,34.7
2017-05-09T12:02:49.580Z,34.7
2017-05-09T12:03:49.308Z,34.61
2017-05-09T12:04:49.331Z,34.7
2017-05-09T12:05:49.665Z,34.7
2017-05-09T12:06:49.495Z,34.61
2017-05-09T12:07:49.442Z,34.8
2017-05-09T12:08:49.435Z,34.41
2017-05-09T12:09:49.515Z,34.41
2017-05-09T12:10:49.803Z,34.7
2017-05-09T12:11:49.518Z,34.51
2017-05-09T12:12:49.837Z,34.61
2017-05-09T12:13:49.566Z,34.8
2017-05-09T12:14:49.594Z,34.61
2017-05-09T12:15:49.628Z,34.41
2017-05-09T12:16:49.651Z,34.41
2017-05-09T12:17:49.675Z,34.7
2017-05-09T12:18:49.694Z,34.8
2017-05-09T12:19:49.724Z,34.7
2017-05-09T12:20:49.750Z,34.89
2017-05-09T12:21:49.841Z,34.61
2017-05-09T12:22:49.814Z,34.61
2017-05-09T12:23:49.828Z,34.61
2017-05-09T12:24:49.859Z,34.51
2017-05-09T12:25:49.876Z,34.31
2017-05-09T12:26:49.906Z,34.41
2017-05-09T12:27:50.287Z,34.31
2017-05-09T12:28:50.260Z,34.22
2017-05-09T12:29:49.979Z,34.41
2017-05-09T12:30:50.005Z,34.22
2017-05-09T12:31:50.035Z,33.93
2017-05-09T12:32:50.061Z,34.03
2017-05-09T12:33:50.085Z,33.85
2017-05-09T12:34:50.410Z,33.95
2017-05-09T12:35:50.139Z,33.66
2017-05-09T12:36:50.171Z,33.85
2017-05-09T12:37:50.189Z,33.75
2017-05-09T12:38:50.223Z,33.75
2017-05-09T12:39:50.240Z,33.85
2017-05-09T12:40:50.269Z,33.85
2017-05-09T12:41:50.292Z,33.75
2017-05-09T12:42:50.370Z,33.85
2017-05-09T12:43:50.345Z,34.05
2017-05-09T12:44:50.369Z,34.05
2017-05-09T12:45:50.402Z,33.95
2017-05-09T12:46:50.428Z,33.95
2017-05-09T12:47:50.451Z,33.85
2017-05-09T12:48:50.523Z,33.95
2017-05-09T12:49:50.501Z,33.95
2017-05-09T12:50:50.533Z,33.75
2017-05-09T12:51:50.561Z,34.05
2017-05-09T12:52:50.584Z,33.75
2017-05-09T12:53:50.615Z,34.05
2017-05-09T12:54:50.933Z,34.05
2017-05-09T12:55:50.657Z,34.05